Virtual Norwegian is not affiliated with Norwegian Air Shuttle in any way.
If you are looking for the real "Norwegian", or you wish to book Norwegian flights, please visit Norwegian.com


We use cookies to ensure you get the best experience on our website.   ACCEPT

LSGG - GVA - Geneva (Geneve Cointrin)

General Info Alternate Airport
ICAO: LSGG Elevation: 1411 ft ICAO: LFLL
IATA: GVA Country: Switzerland IATA: LYS
City: Geneva Charts: Log in to view charts City: Lyon
Name: Geneve Cointrin Hub: No Name Saint Exupery
General Info
ICAO: LSGG
IATA: GVA
City: Geneva
Name: Geneve Cointrin
Elevation: 1411 ft
Country: Switzerland
Charts: Log in to view charts
Hub: No
 
Alternate Airport
ICAO: LFLL
IATA: LYS
City: Lyon
Name: Saint Exupery

Weather
231450Z 15004KT 100V190 9999 FEW015 SCT030 BKN075 12/07 Q1026 NOSIG
Weather
231450Z 15004KT 100V190 9999 FEW015 SCT030 BKN075 12/07 Q1026 NOSIG

Runway Info
05
Length ILS/LOC Course
3900 m 110.90 045
23
Length ILS/LOC Course
3900 m 109.90 225

NOTAMs
NOTAMs currently unavailable.
NOTAMs
NOTAMs currently unavailable

Route map
Airport
Airport (hub)